createdAt,value
2022-10-09T00:00:15.719Z,61.23
2022-10-09T00:03:07.529Z,61.17
2022-10-09T00:05:39.649Z,61.67
2022-10-09T00:08:11.591Z,61.60
2022-10-09T00:10:45.196Z,61.72
2022-10-09T00:13:17.014Z,61.72
2022-10-09T00:15:49.318Z,61.76
2022-10-09T00:18:21.189Z,61.93
2022-10-09T00:20:52.846Z,61.92
2022-10-09T00:23:24.602Z,61.53
2022-10-09T00:25:58.374Z,61.42
2022-10-09T00:28:36.492Z,61.31
2022-10-09T00:31:11.691Z,61.60
2022-10-09T00:33:45.116Z,62.27
2022-10-09T00:36:19.237Z,62.54
2022-10-09T00:38:51.193Z,62.11
2022-10-09T00:41:26.092Z,61.70
2022-10-09T00:44:00.536Z,61.31
2022-10-09T00:46:40.756Z,60.99
2022-10-09T00:49:21.175Z,60.82
2022-10-09T00:51:56.344Z,60.53
2022-10-09T00:54:31.258Z,60.43
2022-10-09T00:57:04.622Z,60.18
2022-10-09T00:59:37.568Z,59.96
2022-10-09T01:02:09.567Z,59.83
2022-10-09T01:04:41.393Z,59.80
2022-10-09T01:07:29.255Z,59.80
2022-10-09T01:10:07.504Z,59.82
2022-10-09T01:12:49.010Z,59.91
2022-10-09T01:15:25.000Z,59.95
2022-10-09T01:18:06.452Z,59.83
2022-10-09T01:20:46.365Z,59.98
2022-10-09T01:23:43.229Z,60.03
2022-10-09T01:26:40.580Z,60.18
2022-10-09T01:29:14.612Z,60.33
2022-10-09T01:31:49.877Z,60.38
2022-10-09T01:34:24.692Z,60.45
2022-10-09T01:36:57.995Z,60.22
2022-10-09T01:39:30.889Z,59.95
2022-10-09T01:42:03.112Z,59.91
2022-10-09T01:44:35.628Z,59.89
2022-10-09T01:47:08.455Z,59.73
2022-10-09T01:49:51.424Z,59.90
2022-10-09T01:52:36.241Z,59.91
2022-10-09T01:55:33.696Z,59.96
2022-10-09T01:58:12.049Z,60.01
2022-10-09T02:00:47.943Z,59.97
2022-10-09T02:03:20.269Z,59.97
2022-10-09T02:05:53.824Z,59.99
2022-10-09T02:08:27.067Z,59.86
2022-10-09T02:11:01.558Z,59.80
2022-10-09T02:13:35.400Z,59.69
2022-10-09T02:16:14.029Z,59.52
2022-10-09T02:18:48.202Z,58.12
2022-10-09T02:21:25.347Z,57.85
2022-10-09T02:23:58.789Z,59.46
2022-10-09T02:26:30.596Z,63.36
2022-10-09T02:29:02.355Z,64.63
2022-10-09T02:31:38.436Z,63.28
2022-10-09T02:34:12.261Z,62.35
2022-10-09T02:36:44.163Z,61.76
2022-10-09T02:39:16.055Z,61.19
2022-10-09T02:41:47.748Z,60.70
2022-10-09T02:44:19.420Z,60.24
2022-10-09T02:46:51.171Z,60.12
2022-10-09T02:49:23.130Z,59.83
2022-10-09T02:51:55.031Z,59.61
2022-10-09T02:54:27.060Z,58.67
2022-10-09T02:56:58.816Z,58.23
2022-10-09T02:59:32.167Z,59.53
2022-10-09T03:02:04.694Z,60.55
2022-10-09T03:04:36.565Z,64.33
2022-10-09T03:07:08.561Z,65.51
2022-10-09T03:09:40.247Z,64.04
2022-10-09T03:12:12.159Z,62.75
2022-10-09T03:14:43.906Z,62.06
2022-10-09T03:17:15.694Z,61.18
2022-10-09T03:19:47.464Z,60.56
2022-10-09T03:22:19.317Z,59.97
2022-10-09T03:24:51.353Z,59.77
2022-10-09T03:27:23.434Z,58.35
2022-10-09T03:29:55.151Z,58.17
2022-10-09T03:32:27.346Z,59.04
2022-10-09T03:34:59.386Z,62.58
2022-10-09T03:37:31.709Z,64.77
2022-10-09T03:40:03.659Z,64.00
2022-10-09T03:42:35.419Z,62.91
2022-10-09T03:45:08.109Z,62.20
2022-10-09T03:47:39.892Z,61.81
2022-10-09T03:50:12.466Z,61.46
2022-10-09T03:52:44.172Z,60.98
2022-10-09T03:55:16.249Z,60.63
2022-10-09T03:57:48.007Z,60.18
2022-10-09T04:00:19.980Z,59.87
2022-10-09T04:02:54.578Z,59.49
2022-10-09T04:05:26.481Z,57.69
2022-10-09T04:07:58.410Z,57.22
2022-10-09T04:10:30.151Z,58.65
2022-10-09T04:13:02.170Z,60.63
2022-10-09T04:15:35.338Z,64.07
2022-10-09T04:18:07.561Z,65.96
2022-10-09T04:20:39.523Z,64.73
2022-10-09T04:23:12.469Z,63.58
2022-10-09T04:25:44.452Z,62.20
2022-10-09T04:28:16.467Z,61.52
2022-10-09T04:30:48.487Z,60.82
2022-10-09T04:33:20.769Z,60.38
2022-10-09T04:35:55.565Z,59.83
2022-10-09T04:38:27.933Z,59.80
2022-10-09T04:41:01.212Z,59.64
2022-10-09T04:43:33.655Z,57.92
2022-10-09T04:46:08.650Z,58.16
2022-10-09T04:48:44.782Z,59.64
2022-10-09T04:51:17.821Z,63.06
2022-10-09T04:53:49.775Z,65.12
2022-10-09T04:56:23.042Z,64.54
2022-10-09T04:58:55.023Z,63.41
2022-10-09T05:01:32.070Z,62.63
2022-10-09T05:04:07.329Z,61.78
2022-10-09T05:06:39.026Z,60.96
2022-10-09T05:09:10.821Z,60.58
2022-10-09T05:11:43.097Z,60.30
2022-10-09T05:14:14.907Z,59.86
2022-10-09T05:17:12.037Z,58.01
2022-10-09T05:19:38.963Z,57.44
2022-10-09T05:22:10.740Z,58.64
2022-10-09T05:24:42.754Z,60.51
2022-10-09T05:27:14.463Z,64.51
2022-10-09T05:29:46.219Z,66.68
2022-10-09T05:32:18.068Z,65.47
2022-10-09T05:34:49.754Z,64.39
2022-10-09T05:37:22.928Z,63.04
2022-10-09T05:39:54.774Z,62.25
2022-10-09T05:42:26.635Z,61.56
2022-10-09T05:44:58.514Z,60.95
2022-10-09T05:47:32.351Z,60.01
2022-10-09T05:50:04.129Z,58.11
2022-10-09T05:52:40.096Z,57.71
2022-10-09T05:55:12.251Z,58.81
2022-10-09T05:57:43.910Z,60.98
2022-10-09T06:00:17.095Z,64.14
2022-10-09T06:02:49.302Z,65.15
2022-10-09T06:05:21.572Z,63.86
2022-10-09T06:07:53.434Z,62.48
2022-10-09T06:10:27.090Z,61.26
2022-10-09T06:13:02.164Z,60.32
2022-10-09T06:15:34.258Z,60.02
2022-10-09T06:18:06.732Z,58.54
2022-10-09T06:20:38.790Z,57.23
2022-10-09T06:23:10.666Z,58.82
2022-10-09T06:25:51.168Z,60.78
2022-10-09T06:28:23.366Z,64.04
2022-10-09T06:30:55.256Z,64.71
2022-10-09T06:33:27.171Z,62.77
2022-10-09T06:36:09.669Z,61.22
2022-10-09T06:38:42.502Z,60.28
2022-10-09T06:41:16.249Z,57.45
2022-10-09T06:43:51.694Z,56.57
2022-10-09T06:46:25.118Z,58.08
2022-10-09T06:48:57.177Z,59.51
2022-10-09T06:51:30.181Z,60.78
2022-10-09T06:54:03.826Z,61.61
2022-10-09T06:56:36.015Z,63.75
2022-10-09T06:59:09.155Z,64.22
2022-10-09T07:01:41.504Z,62.76
2022-10-09T07:04:17.742Z,61.03
2022-10-09T07:06:49.575Z,57.36
2022-10-09T07:09:21.373Z,56.47
2022-10-09T07:11:53.207Z,57.33
2022-10-09T07:14:24.893Z,58.72
2022-10-09T07:16:56.791Z,59.32
2022-10-09T07:19:28.763Z,60.11
2022-10-09T07:22:00.752Z,61.13
2022-10-09T07:24:32.511Z,61.58
2022-10-09T07:27:04.485Z,61.37
2022-10-09T07:29:36.339Z,64.41
2022-10-09T07:32:10.470Z,64.16
2022-10-09T07:34:42.553Z,61.53
2022-10-09T07:37:14.427Z,58.22
2022-10-09T07:39:46.179Z,56.22
2022-10-09T07:42:17.954Z,56.94
2022-10-09T07:44:49.793Z,57.60
2022-10-09T07:47:21.720Z,58.35
2022-10-09T07:49:53.725Z,58.11
2022-10-09T07:52:27.949Z,58.69
2022-10-09T07:54:59.597Z,59.12
2022-10-09T07:57:31.437Z,60.21
2022-10-09T08:00:03.408Z,60.53
2022-10-09T08:02:45.035Z,60.56
2022-10-09T08:05:17.082Z,60.85
2022-10-09T08:07:48.820Z,61.15
2022-10-09T08:10:21.020Z,62.06
2022-10-09T08:12:52.874Z,63.11
2022-10-09T08:15:24.749Z,65.22
2022-10-09T08:17:57.154Z,63.14
2022-10-09T08:20:28.959Z,58.65
2022-10-09T08:23:00.822Z,54.66
2022-10-09T08:25:34.972Z,53.95
2022-10-09T08:28:10.251Z,54.45
2022-10-09T08:30:42.084Z,55.81
2022-10-09T08:33:14.207Z,56.92
2022-10-09T08:35:45.941Z,56.83
2022-10-09T08:38:44.910Z,56.98
2022-10-09T08:41:15.283Z,56.26
2022-10-09T08:43:50.306Z,56.16
2022-10-09T08:46:25.938Z,56.15
2022-10-09T08:48:59.603Z,56.95
2022-10-09T08:51:36.322Z,57.18
2022-10-09T08:54:20.495Z,57.69
2022-10-09T08:56:53.870Z,57.90
2022-10-09T08:59:27.488Z,58.29
2022-10-09T09:02:08.976Z,58.46
2022-10-09T09:04:59.689Z,58.04
2022-10-09T09:07:36.637Z,58.59
2022-10-09T09:10:18.154Z,59.15
2022-10-09T09:12:56.202Z,58.93
2022-10-09T09:15:44.909Z,58.73
2022-10-09T09:18:27.547Z,58.58
2022-10-09T09:21:05.775Z,58.21
2022-10-09T09:23:42.939Z,58.09
2022-10-09T09:26:19.096Z,57.91
2022-10-09T09:28:57.057Z,57.45
2022-10-09T09:31:29.844Z,57.21
2022-10-09T09:34:06.302Z,57.63
2022-10-09T09:36:45.856Z,57.52
2022-10-09T09:40:23.751Z,57.21
2022-10-09T09:42:16.514Z,56.97
2022-10-09T09:44:57.187Z,57.31
2022-10-09T09:47:34.598Z,55.36
2022-10-09T09:50:23.428Z,53.58
2022-10-09T09:53:08.314Z,54.36
2022-10-09T09:55:40.345Z,54.80
2022-10-09T09:58:18.341Z,55.29
2022-10-09T10:00:57.237Z,54.97
2022-10-09T10:03:29.266Z,55.45
2022-10-09T10:06:01.001Z,54.77
2022-10-09T10:08:35.049Z,54.88
2022-10-09T10:11:09.381Z,54.23
2022-10-09T10:13:49.758Z,54.04
2022-10-09T10:16:25.944Z,54.22
2022-10-09T10:18:59.416Z,53.32
2022-10-09T10:21:48.014Z,53.78
2022-10-09T10:24:27.726Z,54.31
2022-10-09T10:27:03.389Z,54.62
2022-10-09T10:29:39.782Z,54.72
2022-10-09T10:32:18.137Z,53.91
2022-10-09T10:34:55.049Z,53.97
2022-10-09T10:37:33.122Z,53.33
2022-10-09T10:40:13.743Z,53.76
2022-10-09T10:43:00.096Z,53.55
2022-10-09T10:45:35.724Z,53.16
2022-10-09T10:48:11.355Z,52.98
2022-10-09T10:50:49.960Z,52.02
2022-10-09T10:53:29.505Z,51.50
2022-10-09T10:56:06.925Z,50.73
2022-10-09T10:58:47.238Z,50.31
2022-10-09T11:01:30.203Z,50.26
2022-10-09T11:04:23.602Z,50.94
2022-10-09T11:07:06.239Z,51.31
2022-10-09T11:09:47.546Z,50.71
2022-10-09T11:12:46.741Z,50.66
2022-10-09T11:15:30.886Z,51.26
2022-10-09T11:18:16.816Z,51.33
2022-10-09T11:21:03.545Z,51.27
2022-10-09T11:23:47.418Z,51.18
2022-10-09T11:26:27.908Z,50.74
2022-10-09T11:29:03.946Z,51.57
2022-10-09T11:31:42.656Z,51.32
2022-10-09T11:34:21.317Z,50.19
2022-10-09T11:36:53.349Z,50.66
2022-10-09T11:39:27.747Z,50.06
2022-10-09T11:42:01.264Z,49.50
2022-10-09T11:44:45.296Z,50.19
2022-10-09T11:47:25.501Z,50.35
2022-10-09T11:50:12.886Z,49.74
2022-10-09T11:52:55.802Z,49.67
2022-10-09T11:55:29.411Z,49.37
2022-10-09T11:58:21.243Z,48.67
2022-10-09T12:00:55.117Z,49.51
2022-10-09T12:03:33.578Z,49.85
2022-10-09T12:06:14.431Z,50.71
2022-10-09T12:08:57.787Z,51.13
2022-10-09T12:11:30.595Z,51.06
2022-10-09T12:14:04.794Z,51.21
2022-10-09T12:16:43.572Z,51.37
2022-10-09T12:19:28.167Z,51.22
2022-10-09T12:22:06.765Z,50.95
2022-10-09T12:24:44.884Z,51.05
2022-10-09T12:27:23.020Z,51.18
2022-10-09T12:29:57.445Z,51.22
2022-10-09T12:32:33.360Z,50.84
2022-10-09T12:35:13.570Z,50.57
2022-10-09T12:37:45.396Z,49.97
2022-10-09T12:40:19.485Z,50.25
2022-10-09T12:42:53.938Z,50.74
2022-10-09T12:45:30.009Z,50.84
2022-10-09T12:48:12.628Z,50.63
2022-10-09T12:50:44.444Z,50.06
2022-10-09T12:53:18.600Z,50.14
2022-10-09T12:55:52.609Z,49.76
2022-10-09T12:58:27.790Z,49.67
2022-10-09T13:01:02.516Z,49.69
2022-10-09T13:03:38.900Z,49.21
2022-10-09T13:06:16.743Z,50.35
2022-10-09T13:08:53.187Z,49.91
2022-10-09T13:11:31.582Z,50.02
2022-10-09T13:14:03.555Z,49.86
2022-10-09T13:16:44.739Z,50.22
2022-10-09T13:19:30.130Z,50.17
2022-10-09T13:22:17.208Z,50.24
2022-10-09T13:24:51.465Z,49.91
2022-10-09T13:27:24.955Z,49.36
2022-10-09T13:29:57.285Z,49.13
2022-10-09T13:32:28.981Z,49.08
2022-10-09T13:35:00.620Z,49.31
2022-10-09T13:37:32.481Z,49.81
2022-10-09T13:40:05.969Z,50.42
2022-10-09T13:42:39.967Z,50.57
2022-10-09T13:45:13.104Z,51.08
2022-10-09T13:47:44.908Z,51.56
2022-10-09T13:50:17.921Z,52.15
2022-10-09T13:52:49.673Z,52.23
2022-10-09T13:55:21.512Z,52.00
2022-10-09T13:57:54.024Z,51.94
2022-10-09T14:00:25.953Z,51.53
2022-10-09T14:02:57.726Z,51.66
2022-10-09T14:05:29.405Z,50.71
2022-10-09T14:08:01.088Z,50.61
2022-10-09T14:10:33.358Z,50.20
2022-10-09T14:13:05.152Z,50.28
2022-10-09T14:15:40.108Z,50.67
2022-10-09T14:18:11.929Z,51.13
2022-10-09T14:20:43.611Z,50.82
2022-10-09T14:23:15.635Z,51.14
2022-10-09T14:25:49.973Z,50.97
2022-10-09T14:28:21.709Z,50.46
2022-10-09T14:30:53.425Z,50.49
2022-10-09T14:33:25.113Z,50.05
2022-10-09T14:35:56.806Z,50.24
2022-10-09T14:38:28.647Z,50.45
2022-10-09T14:41:00.653Z,50.05
2022-10-09T14:43:32.385Z,50.53
2022-10-09T14:46:09.230Z,50.47
2022-10-09T14:48:42.004Z,50.36
2022-10-09T14:51:17.365Z,50.56
2022-10-09T14:53:49.424Z,50.47
2022-10-09T14:56:22.193Z,50.72
2022-10-09T14:58:54.219Z,50.77
2022-10-09T15:01:26.242Z,51.28
2022-10-09T15:03:58.503Z,51.76
2022-10-09T15:06:30.341Z,52.53
2022-10-09T15:09:05.498Z,52.92
2022-10-09T15:11:38.217Z,53.65
2022-10-09T15:14:10.102Z,54.30
2022-10-09T15:16:42.383Z,54.53
2022-10-09T15:19:14.431Z,54.94
2022-10-09T15:21:46.172Z,55.54
2022-10-09T15:24:17.858Z,55.93
2022-10-09T15:26:49.485Z,56.21
2022-10-09T15:29:21.342Z,56.86
2022-10-09T15:31:53.315Z,57.11
2022-10-09T15:34:25.068Z,57.43
2022-10-09T15:36:56.721Z,57.71
2022-10-09T15:39:28.426Z,58.22
2022-10-09T15:42:00.156Z,58.73
2022-10-09T15:44:32.415Z,59.24
2022-10-09T15:47:04.137Z,59.88
2022-10-09T15:49:35.871Z,60.80
2022-10-09T15:52:07.550Z,64.55
2022-10-09T15:54:39.417Z,68.23
2022-10-09T15:57:11.635Z,66.52
2022-10-09T15:59:43.467Z,63.47
2022-10-09T16:02:15.382Z,61.20
2022-10-09T16:04:47.415Z,57.44
2022-10-09T16:07:19.091Z,55.60
2022-10-09T16:09:50.997Z,56.13
2022-10-09T16:12:22.898Z,57.07
2022-10-09T16:14:54.582Z,57.80
2022-10-09T16:17:26.724Z,58.50
2022-10-09T16:19:58.472Z,59.38
2022-10-09T16:22:30.196Z,60.26
2022-10-09T16:25:02.790Z,64.43
2022-10-09T16:27:35.014Z,67.03
2022-10-09T16:30:08.526Z,64.76
2022-10-09T16:32:40.679Z,62.10
2022-10-09T16:35:12.708Z,58.14
2022-10-09T16:37:44.616Z,55.78
2022-10-09T16:40:16.533Z,56.23
2022-10-09T16:42:48.479Z,57.66
2022-10-09T16:45:20.598Z,58.90
2022-10-09T16:47:52.766Z,59.93
2022-10-09T16:50:24.471Z,63.93
2022-10-09T16:52:56.828Z,67.07
2022-10-09T16:55:28.826Z,64.53
2022-10-09T16:58:00.547Z,62.17
2022-10-09T17:00:32.376Z,60.99
2022-10-09T17:03:04.086Z,57.39
2022-10-09T17:05:40.751Z,55.71
2022-10-09T17:08:12.579Z,56.37
2022-10-09T17:10:45.365Z,57.78
2022-10-09T17:13:17.216Z,59.20
2022-10-09T17:15:48.972Z,60.43
2022-10-09T17:18:21.190Z,64.57
2022-10-09T17:20:53.430Z,66.93
2022-10-09T17:23:25.076Z,64.97
2022-10-09T17:25:57.041Z,63.07
2022-10-09T17:28:28.839Z,61.42
2022-10-09T17:31:02.527Z,58.37
2022-10-09T17:33:34.842Z,56.64
2022-10-09T17:36:07.751Z,57.35
2022-10-09T17:38:40.247Z,58.48
2022-10-09T17:41:13.775Z,59.88
2022-10-09T17:43:46.139Z,63.77
2022-10-09T17:46:18.466Z,66.43
2022-10-09T17:48:53.418Z,64.72
2022-10-09T17:51:27.244Z,63.02
2022-10-09T17:54:02.735Z,62.02
2022-10-09T17:56:36.123Z,60.95
2022-10-09T17:59:08.750Z,57.90
2022-10-09T18:01:40.822Z,56.35
2022-10-09T18:04:17.056Z,57.43
2022-10-09T18:06:48.730Z,58.80
2022-10-09T18:09:20.447Z,59.75
2022-10-09T18:11:52.369Z,63.46
2022-10-09T18:14:24.234Z,66.79
2022-10-09T18:16:55.917Z,65.66
2022-10-09T18:19:27.639Z,63.80
2022-10-09T18:21:59.436Z,61.72
2022-10-09T18:24:31.201Z,58.57
2022-10-09T18:27:03.149Z,56.56
2022-10-09T18:29:34.991Z,57.11
2022-10-09T18:32:09.666Z,58.51
2022-10-09T18:34:46.319Z,59.74
2022-10-09T18:37:20.039Z,63.76
2022-10-09T18:39:51.894Z,66.44
2022-10-09T18:42:23.633Z,64.31
2022-10-09T18:44:55.417Z,62.11
2022-10-09T18:47:32.771Z,61.38
2022-10-09T18:50:09.640Z,60.44
2022-10-09T18:52:42.644Z,58.55
2022-10-09T18:55:19.619Z,57.06
2022-10-09T18:57:51.510Z,57.81
2022-10-09T19:00:23.289Z,59.18
2022-10-09T19:02:55.105Z,60.59
2022-10-09T19:05:27.518Z,64.56
2022-10-09T19:07:59.587Z,67.51
2022-10-09T19:10:31.444Z,67.09
2022-10-09T19:13:03.179Z,64.63
2022-10-09T19:15:35.282Z,62.44
2022-10-09T19:18:07.510Z,61.34
2022-10-09T19:20:41.187Z,60.27
2022-10-09T19:23:14.683Z,57.76
2022-10-09T19:25:51.369Z,56.55
2022-10-09T19:28:24.735Z,57.69
2022-10-09T19:30:56.608Z,58.93
2022-10-09T19:33:29.541Z,60.13
2022-10-09T19:36:03.696Z,64.00
2022-10-09T19:38:36.728Z,66.32
2022-10-09T19:41:13.123Z,65.14
2022-10-09T19:43:45.356Z,62.78
2022-10-09T19:46:20.128Z,61.07
2022-10-09T19:48:51.996Z,60.04
2022-10-09T19:51:26.506Z,57.89
2022-10-09T19:53:59.215Z,56.52
2022-10-09T19:56:34.334Z,57.27
2022-10-09T19:59:08.730Z,58.45
2022-10-09T20:01:41.036Z,59.90
2022-10-09T20:04:13.631Z,63.29
2022-10-09T20:06:48.733Z,66.00
2022-10-09T20:09:21.470Z,64.92
2022-10-09T20:11:53.311Z,62.95
2022-10-09T20:14:25.351Z,61.91
2022-10-09T20:16:57.185Z,60.75
2022-10-09T20:19:31.018Z,60.01
2022-10-09T20:22:02.755Z,57.48
2022-10-09T20:24:34.413Z,56.66
2022-10-09T20:27:06.179Z,57.58
2022-10-09T20:29:38.119Z,58.67
2022-10-09T20:32:12.210Z,59.74
2022-10-09T20:34:44.321Z,60.94
2022-10-09T20:37:16.108Z,65.11
2022-10-09T20:39:49.107Z,67.83
2022-10-09T20:42:20.850Z,65.96
2022-10-09T20:44:52.696Z,63.49
2022-10-09T20:47:24.588Z,61.13
2022-10-09T20:49:56.310Z,58.04
2022-10-09T20:52:28.111Z,56.75
2022-10-09T20:55:00.102Z,57.59
2022-10-09T20:57:31.834Z,58.80
2022-10-09T21:00:04.492Z,60.17
2022-10-09T21:02:36.284Z,63.80
2022-10-09T21:05:09.297Z,67.56
2022-10-09T21:07:41.031Z,65.90
2022-10-09T21:10:15.076Z,63.79
2022-10-09T21:12:46.808Z,62.56
2022-10-09T21:15:18.762Z,61.34
2022-10-09T21:17:53.694Z,60.10
2022-10-09T21:20:25.373Z,57.44
2022-10-09T21:22:57.121Z,56.34
2022-10-09T21:25:28.994Z,57.41
2022-10-09T21:28:01.054Z,58.93
2022-10-09T21:30:41.226Z,60.29
2022-10-09T21:33:13.968Z,64.72
2022-10-09T21:35:47.960Z,66.71
2022-10-09T21:38:22.078Z,64.67
2022-10-09T21:40:53.937Z,63.04
2022-10-09T21:43:25.631Z,61.85
2022-10-09T21:45:57.344Z,60.98
2022-10-09T21:48:29.083Z,60.02
2022-10-09T21:51:00.882Z,57.79
2022-10-09T21:53:32.560Z,56.59
2022-10-09T21:56:06.711Z,57.49
2022-10-09T21:58:38.902Z,58.64
2022-10-09T22:01:11.331Z,60.02
2022-10-09T22:03:45.331Z,63.90
2022-10-09T22:06:19.349Z,67.02
2022-10-09T22:08:51.333Z,65.95
2022-10-09T22:11:23.067Z,64.34
2022-10-09T22:13:57.269Z,63.09
2022-10-09T22:16:28.980Z,62.04
2022-10-09T22:19:01.271Z,61.19
2022-10-09T22:21:32.924Z,60.14
2022-10-09T22:24:05.517Z,57.70
2022-10-09T22:26:38.605Z,56.57
2022-10-09T22:29:10.564Z,57.40
2022-10-09T22:31:42.921Z,58.70
2022-10-09T22:34:14.749Z,60.01
2022-10-09T22:36:47.266Z,63.98
2022-10-09T22:39:19.081Z,66.37
2022-10-09T22:41:50.773Z,65.35
2022-10-09T22:44:22.618Z,63.45
2022-10-09T22:46:54.616Z,62.25
2022-10-09T22:49:27.550Z,61.10
2022-10-09T22:51:59.310Z,58.19
2022-10-09T22:54:30.977Z,56.79
2022-10-09T22:57:05.055Z,57.93
2022-10-09T22:59:36.863Z,59.17
2022-10-09T23:02:09.020Z,60.46
2022-10-09T23:04:40.833Z,64.04
2022-10-09T23:07:12.583Z,67.47
2022-10-09T23:09:44.245Z,66.00
2022-10-09T23:12:16.087Z,63.79
2022-10-09T23:14:49.334Z,62.02
2022-10-09T23:17:21.059Z,60.39
2022-10-09T23:19:52.700Z,57.20
2022-10-09T23:22:24.396Z,55.61
2022-10-09T23:24:57.025Z,56.56
2022-10-09T23:27:28.880Z,58.11
2022-10-09T23:30:01.039Z,59.28
2022-10-09T23:32:34.781Z,60.53
2022-10-09T23:35:07.325Z,64.59
2022-10-09T23:37:39.058Z,67.36
2022-10-09T23:40:11.868Z,65.18
2022-10-09T23:42:44.062Z,62.86
2022-10-09T23:45:16.122Z,61.20
2022-10-09T23:47:47.822Z,58.04
2022-10-09T23:50:19.829Z,56.60
2022-10-09T23:52:51.961Z,57.72
2022-10-09T23:55:24.028Z,59.14
2022-10-09T23:57:55.691Z,60.52
